Terminal Aerodrome Forecast
Issued by NWS

Home | Current Version | Previous Version | Text Only | Print | Product List | Glossary On
Versions: 1 2 3 4 5 6 7 8 9 10 11 12 13 14 15 16 17 18
000
FTUS44 KTSA 182300
TAFMLC
TAF
KMLC 182321Z 1900/1924 VRB04KT P6SM BKN040
      TEMPO 1904/1908 3SM -TSRA BR BKN025CB
     FM190900 17006KT P6SM BKN025
     FM191700 22006KT P6SM BKN050 PROB30 1918/1924 3SM -TSRA BR
      BKN030CB=

USA.gov is the U.S. government's official web portal to all federal, state and local government web resources and services.